»·PEaware :: ASA497 KBOI-KJAC

ASA497 :: KBOI-KJAC

FLIGHT INFORMATION

Flight Status: Arrived
Operator:
Alaska Airlines
More flights by this operator :: More flights under this callsign
Pilot: James D. (13710)
Aircraft: AIRBUS A320
(A320)
More flights by this aircraft type
Origin: KBOI Boise Air Terminal/Gowen
United States
Destination: KJAC Jackson Hole
United States
More flights between these airports :: More routes between these airports
Route: BOI3 BOI NATZZ LEIDY DNW
File this flight plan on PilotEdge
Remarks:
Altitude:
(Current/Filed)
29,000ft
Speed:
(Current/Filed)
390kts
Departed: 21-Sep-18 12:28 PM
Arrived: 21-Sep-18 01:16 PM
Distance/Time
Traveled:
238nm/0:48
Distance/Time
To Go:
Arrived

Flight Plot

Page will automatically refresh every two minutes.

Flight plan parsing failed; only flown route is shown


Map Options




Map Legend


Flown Route
Filed Route
Departure Airport
Arrival Airport
Navaid (VOR, NDB)
Fix

Horizontal Profiles

Position Reports

Time Latitude Longitude Heading Altitude Ground
Speed
21-Sep-18 11:54 43.566868 -116.218544 319 2852ft 0kts
21-Sep-18 11:55 43.566868 -116.218544 319 2852ft 0kts
21-Sep-18 11:56 43.566868 -116.218544 319 2852ft 0kts
21-Sep-18 11:57 43.566868 -116.218544 319 2852ft 0kts
21-Sep-18 11:58 43.566868 -116.218544 319 2852ft 0kts
21-Sep-18 11:59 43.566868 -116.218544 319 2852ft 0kts
21-Sep-18 12:00 43.566868 -116.218544 319 2852ft 0kts
21-Sep-18 12:01 43.566868 -116.218544 319 2852ft 0kts
21-Sep-18 12:02 43.566868 -116.218544 319 2852ft 0kts
21-Sep-18 12:03 43.566868 -116.218544 319 2852ft 0kts
21-Sep-18 12:04 43.566868 -116.218544 319 2852ft 0kts
21-Sep-18 12:05 43.566868 -116.218544 319 2852ft 0kts
21-Sep-18 12:06 43.566868 -116.218544 319 2852ft 0kts
21-Sep-18 12:07 43.566868 -116.218544 319 2852ft 0kts
21-Sep-18 12:08 43.566868 -116.218544 319 2852ft 0kts
21-Sep-18 12:09 43.566868 -116.218544 319 2852ft 0kts
21-Sep-18 12:10 43.566868 -116.218544 319 2852ft 0kts
21-Sep-18 12:11 43.566868 -116.218544 319 2852ft 0kts
21-Sep-18 12:12 43.566868 -116.218544 319 2852ft 0kts
21-Sep-18 12:13 43.566868 -116.218544 319 2852ft 0kts
21-Sep-18 12:14 43.566868 -116.218544 319 2852ft 0kts
21-Sep-18 12:15 43.566868 -116.218544 319 2852ft 0kts
21-Sep-18 12:16 43.566698 -116.218323 321 2852ft 1kts
21-Sep-18 12:17 43.566399 -116.217795 268 2852ft 2kts
21-Sep-18 12:18 43.566679 -116.217368 192 2852ft 0kts
21-Sep-18 12:19 43.566679 -116.217368 192 2852ft 0kts
21-Sep-18 12:20 43.566679 -116.217368 192 2852ft 0kts
21-Sep-18 12:21 43.566591 -116.217394 192 2852ft 0kts
21-Sep-18 12:22 43.566423 -116.217445 192 2852ft 0kts
21-Sep-18 12:23 43.565813 -116.217996 250 2852ft 6kts
21-Sep-18 12:24 43.566189 -116.221683 289 2852ft 12kts
21-Sep-18 12:25 43.567910 -116.226624 295 2852ft 14kts
21-Sep-18 12:26 43.569601 -116.231525 295 2852ft 13kts
21-Sep-18 12:27 43.570968 -116.235628 292 2852ft 7kts
21-Sep-18 12:28 43.570982 -116.236072 229 2852ft 0kts
21-Sep-18 12:29 43.570180 -116.236503 156 2852ft 9kts
21-Sep-18 12:30 43.559087 -116.204453 116 3194ft 183kts
21-Sep-18 12:31 43.537699 -116.135635 112 5865ft 226kts
21-Sep-18 12:32 43.510668 -116.042602 114 8220ft 286kts
21-Sep-18 12:33 43.506837 -115.930311 82 10980ft 325kts
21-Sep-18 12:34 43.521405 -115.793998 82 12463ft 385kts
21-Sep-18 12:35 43.536949 -115.645666 82 14761ft 402kts
21-Sep-18 12:36 43.552867 -115.490988 82 16107ft 409kts
21-Sep-18 12:37 43.568838 -115.333234 82 17912ft 425kts
21-Sep-18 12:38 43.577734 -115.170325 87 19682ft 438kts
21-Sep-18 12:39 43.584913 -115.000774 87 21353ft 449kts
21-Sep-18 12:40 43.591988 -114.827167 87 22829ft 461kts
21-Sep-18 12:41 43.598979 -114.648765 87 24169ft 472kts
21-Sep-18 12:42 43.605862 -114.465737 87 25410ft 483kts
21-Sep-18 12:43 43.612531 -114.280484 88 26538ft 492kts
21-Sep-18 12:44 43.619072 -114.090080 87 27572ft 502kts
21-Sep-18 12:45 43.625391 -113.896681 87 28523ft 510kts
21-Sep-18 12:46 43.631454 -113.701284 87 29279ft 508kts
21-Sep-18 12:47 43.637157 -113.506421 87 29285ft 509kts
21-Sep-18 12:48 43.642433 -113.314999 88 29278ft 509kts
21-Sep-18 12:49 43.647422 -113.122345 88 29256ft 509kts
21-Sep-18 12:50 43.652147 -112.926994 88 29251ft 510kts
21-Sep-18 12:51 43.656536 -112.731632 88 29264ft 511kts
21-Sep-18 12:52 43.660606 -112.535242 88 29287ft 512kts
21-Sep-18 12:53 43.664353 -112.338756 88 29291ft 513kts
21-Sep-18 12:54 43.667743 -112.143449 88 29280ft 512kts
21-Sep-18 12:55 43.670806 -111.947597 88 29273ft 512kts
21-Sep-18 12:56 43.673544 -111.750992 88 29248ft 511kts
21-Sep-18 12:57 43.675896 -111.563303 89 28399ft 474kts
21-Sep-18 12:58 43.677784 -111.384320 89 27465ft 460kts
21-Sep-18 12:59 43.675815 -111.213125 101 25549ft 447kts
21-Sep-18 13:00 43.653542 -111.048201 102 23833ft 429kts
21-Sep-18 13:01 43.631901 -110.889389 102 22089ft 413kts
21-Sep-18 13:02 43.611060 -110.736685 102 20302ft 399kts
21-Sep-18 13:03 43.591050 -110.588385 102 18516ft 386kts
21-Sep-18 13:04 43.571848 -110.445398 101 16718ft 376kts
21-Sep-18 13:05 43.557068 -110.307056 80 15030ft 345kts
21-Sep-18 13:06 43.621662 -110.241150 345 14011ft 308kts
21-Sep-18 13:07 43.704041 -110.268594 337 14005ft 304kts
21-Sep-18 13:08 43.778738 -110.308886 334 12965ft 277kts
21-Sep-18 13:09 43.826527 -110.366116 264 11844ft 223kts
21-Sep-18 13:10 43.820439 -110.448767 263 11028ft 207kts
21-Sep-18 13:11 43.814792 -110.525474 260 11016ft 196kts
21-Sep-18 13:12 43.792886 -110.593981 245 10375ft 187kts
21-Sep-18 13:13 43.762026 -110.643863 220 9523ft 170kts
21-Sep-18 13:14 43.727191 -110.679172 201 8737ft 152kts
21-Sep-18 13:15 43.687618 -110.697905 201 7971ft 150kts
21-Sep-18 13:16 43.648740 -110.717356 202 7186ft 148kts
21-Sep-18 13:17 43.610367 -110.736290 199 6434ft 137kts
21-Sep-18 13:18 43.599478 -110.740532 80 6431ft 0kts
21-Sep-18 13:19 43.602323 -110.738501 41 6431ft 10kts

Navigation Log

Ident Type
Flight plan parsing failed, navigation log unavailable